sensor_id;sensor_type;location;lat;lon;timestamp;pressure;altitude;pressure_sealevel;temperature;humidity
60479;BME280;46321;48.398;11.754;2022-12-10T00:02:05;95305.69;;;-0.35;91.82
60479;BME280;46321;48.398;11.754;2022-12-10T00:04:30;95306.53;;;-0.35;92.00
60479;BME280;46321;48.398;11.754;2022-12-10T00:06:56;95301.31;;;-0.35;91.79
60479;BME280;46321;48.398;11.754;2022-12-10T00:09:21;95298.72;;;-0.35;92.03
60479;BME280;46321;48.398;11.754;2022-12-10T00:11:47;95296.66;;;-0.41;92.06
60479;BME280;46321;48.398;11.754;2022-12-10T00:14:13;95295.00;;;-0.42;92.30
60479;BME280;46321;48.398;11.754;2022-12-10T00:16:39;95291.47;;;-0.41;91.65
60479;BME280;46321;48.398;11.754;2022-12-10T00:19:04;95298.28;;;-0.40;91.96
60479;BME280;46321;48.398;11.754;2022-12-10T00:21:32;95305.41;;;-0.42;91.92
60479;BME280;46321;48.398;11.754;2022-12-10T00:23:59;95314.47;;;-0.36;91.71
60479;BME280;46321;48.398;11.754;2022-12-10T00:26:29;95312.56;;;-0.34;91.73
60479;BME280;46321;48.398;11.754;2022-12-10T00:28:55;95306.66;;;-0.36;91.77
60479;BME280;46321;48.398;11.754;2022-12-10T00:31:29;95311.44;;;-0.41;91.84
60479;BME280;46321;48.398;11.754;2022-12-10T00:33:57;95308.84;;;-0.41;91.71
60479;BME280;46321;48.398;11.754;2022-12-10T00:36:25;95310.22;;;-0.37;91.45
60479;BME280;46321;48.398;11.754;2022-12-10T00:38:50;95304.06;;;-0.36;91.59
60479;BME280;46321;48.398;11.754;2022-12-10T00:41:16;95303.09;;;-0.35;91.49
60479;BME280;46321;48.398;11.754;2022-12-10T00:43:42;95307.34;;;-0.34;91.44
60479;BME280;46321;48.398;11.754;2022-12-10T00:46:08;95298.56;;;-0.33;91.07
60479;BME280;46321;48.398;11.754;2022-12-10T00:48:34;95296.81;;;-0.32;90.69
60479;BME280;46321;48.398;11.754;2022-12-10T00:51:02;95303.50;;;-0.30;90.62
60479;BME280;46321;48.398;11.754;2022-12-10T00:53:29;95297.47;;;-0.30;90.83
60479;BME280;46321;48.398;11.754;2022-12-10T00:55:55;95302.16;;;-0.34;91.17
60479;BME280;46321;48.398;11.754;2022-12-10T00:58:21;95308.88;;;-0.31;91.18
60479;BME280;46321;48.398;11.754;2022-12-10T01:00:47;95315.69;;;-0.30;91.05
60479;BME280;46321;48.398;11.754;2022-12-10T01:03:13;95334.72;;;-0.30;91.04
60479;BME280;46321;48.398;11.754;2022-12-10T01:05:38;95328.97;;;-0.33;91.28
60479;BME280;46321;48.398;11.754;2022-12-10T01:08:04;95323.50;;;-0.30;91.35
60479;BME280;46321;48.398;11.754;2022-12-10T01:10:29;95336.06;;;-0.36;91.35
60479;BME280;46321;48.398;11.754;2022-12-10T01:12:54;95335.13;;;-0.35;91.62
60479;BME280;46321;48.398;11.754;2022-12-10T01:15:20;95346.22;;;-0.32;91.57
60479;BME280;46321;48.398;11.754;2022-12-10T01:17:45;95338.16;;;-0.29;90.97
60479;BME280;46321;48.398;11.754;2022-12-10T01:20:10;95340.06;;;-0.31;91.17
60479;BME280;46321;48.398;11.754;2022-12-10T01:22:37;95330.63;;;-0.32;91.13
60479;BME280;46321;48.398;11.754;2022-12-10T01:25:02;95332.28;;;-0.31;90.85
60479;BME280;46321;48.398;11.754;2022-12-10T01:27:27;95323.91;;;-0.25;90.72
60479;BME280;46321;48.398;11.754;2022-12-10T01:29:53;95328.81;;;-0.22;90.42
60479;BME280;46321;48.398;11.754;2022-12-10T01:32:18;95335.00;;;-0.23;90.37
60479;BME280;46321;48.398;11.754;2022-12-10T01:34:43;95341.03;;;-0.22;90.53
60479;BME280;46321;48.398;11.754;2022-12-10T01:37:08;95338.69;;;-0.26;90.43
60479;BME280;46321;48.398;11.754;2022-12-10T01:39:34;95338.28;;;-0.21;90.72
60479;BME280;46321;48.398;11.754;2022-12-10T01:42:00;95341.97;;;-0.24;90.91
60479;BME280;46321;48.398;11.754;2022-12-10T01:46:55;95360.34;;;-0.25;91.13
60479;BME280;46321;48.398;11.754;2022-12-10T01:49:33;95362.66;;;-0.22;91.00
60479;BME280;46321;48.398;11.754;2022-12-10T01:51:58;95354.72;;;-0.10;90.77
60479;BME280;46321;48.398;11.754;2022-12-10T01:54:29;95345.97;;;-0.09;89.87
60479;BME280;46321;48.398;11.754;2022-12-10T01:57:16;95342.78;;;0.07;89.15
60479;BME280;46321;48.398;11.754;2022-12-10T01:59:43;95349.09;;;0.14;88.54
60479;BME280;46321;48.398;11.754;2022-12-10T02:02:28;95345.41;;;0.17;88.53
60479;BME280;46321;48.398;11.754;2022-12-10T02:08:02;95347.06;;;0.18;88.56
60479;BME280;46321;48.398;11.754;2022-12-10T02:13:19;95342.66;;;0.18;88.42
60479;BME280;46321;48.398;11.754;2022-12-10T02:15:51;95344.56;;;0.16;88.14
60479;BME280;46321;48.398;11.754;2022-12-10T02:18:24;95345.63;;;0.43;87.56
60479;BME280;46321;48.398;11.754;2022-12-10T02:20:57;95345.47;;;0.55;86.40
60479;BME280;46321;48.398;11.754;2022-12-10T02:23:43;95335.47;;;0.60;85.91
60479;BME280;46321;48.398;11.754;2022-12-10T02:29:18;95334.34;;;0.63;85.75
60479;BME280;46321;48.398;11.754;2022-12-10T02:32:13;95347.50;;;0.61;85.49
60479;BME280;46321;48.398;11.754;2022-12-10T02:34:46;95345.88;;;0.60;85.49
60479;BME280;46321;48.398;11.754;2022-12-10T02:37:22;95334.78;;;0.58;85.64
60479;BME280;46321;48.398;11.754;2022-12-10T02:39:51;95326.31;;;0.56;85.44
60479;BME280;46321;48.398;11.754;2022-12-10T02:42:19;95329.69;;;0.56;85.53
60479;BME280;46321;48.398;11.754;2022-12-10T02:44:47;95336.00;;;0.54;85.72
60479;BME280;46321;48.398;11.754;2022-12-10T02:47:15;95333.81;;;0.59;85.58
60479;BME280;46321;48.398;11.754;2022-12-10T02:49:42;95328.59;;;0.59;85.81
60479;BME280;46321;48.398;11.754;2022-12-10T02:52:13;95335.16;;;0.63;85.64
60479;BME280;46321;48.398;11.754;2022-12-10T02:54:43;95341.88;;;0.66;85.72
60479;BME280;46321;48.398;11.754;2022-12-10T03:03:22;95329.69;;;0.56;85.78
60479;BME280;46321;48.398;11.754;2022-12-10T03:05:52;95331.34;;;0.57;85.84
60479;BME280;46321;48.398;11.754;2022-12-10T03:08:40;95324.38;;;0.58;86.11
60479;BME280;46321;48.398;11.754;2022-12-10T03:11:18;95323.53;;;0.57;85.92
60479;BME280;46321;48.398;11.754;2022-12-10T03:13:49;95334.78;;;0.58;85.96
60479;BME280;46321;48.398;11.754;2022-12-10T03:16:17;95324.66;;;0.55;86.50
60479;BME280;46321;48.398;11.754;2022-12-10T03:18:44;95327.66;;;0.50;86.47
60479;BME280;46321;48.398;11.754;2022-12-10T03:21:13;95337.66;;;0.55;86.44
60479;BME280;46321;48.398;11.754;2022-12-10T03:23:43;95329.44;;;0.60;86.64
60479;BME280;46321;48.398;11.754;2022-12-10T03:26:11;95322.88;;;0.55;86.29
60479;BME280;46321;48.398;11.754;2022-12-10T03:28:43;95316.97;;;0.53;86.34
60479;BME280;46321;48.398;11.754;2022-12-10T03:31:12;95317.66;;;0.45;86.58
60479;BME280;46321;48.398;11.754;2022-12-10T03:33:39;95309.06;;;0.35;87.06
60479;BME280;46321;48.398;11.754;2022-12-10T03:36:06;95312.88;;;0.41;86.56
60479;BME280;46321;48.398;11.754;2022-12-10T03:38:33;95322.75;;;0.37;86.92
60479;BME280;46321;48.398;11.754;2022-12-10T03:40:59;95321.28;;;0.25;87.52
60479;BME280;46321;48.398;11.754;2022-12-10T03:43:25;95325.78;;;0.22;87.45
60479;BME280;46321;48.398;11.754;2022-12-10T03:45:50;95329.22;;;0.33;87.15
60479;BME280;46321;48.398;11.754;2022-12-10T03:48:15;95336.06;;;0.34;87.05
60479;BME280;46321;48.398;11.754;2022-12-10T03:50:40;95321.66;;;0.40;87.13
60479;BME280;46321;48.398;11.754;2022-12-10T03:53:06;95318.69;;;0.25;87.26
60479;BME280;46321;48.398;11.754;2022-12-10T03:55:31;95323.44;;;0.29;87.20
60479;BME280;46321;48.398;11.754;2022-12-10T03:57:58;95325.78;;;0.42;86.29
60479;BME280;46321;48.398;11.754;2022-12-10T04:00:23;95331.41;;;0.38;86.10
60479;BME280;46321;48.398;11.754;2022-12-10T04:02:48;95324.28;;;0.30;87.01
60479;BME280;46321;48.398;11.754;2022-12-10T04:05:13;95325.53;;;0.16;87.49
60479;BME280;46321;48.398;11.754;2022-12-10T04:07:39;95322.38;;;0.12;87.96
60479;BME280;46321;48.398;11.754;2022-12-10T04:10:04;95322.13;;;0.15;88.30
60479;BME280;46321;48.398;11.754;2022-12-10T04:12:30;95319.06;;;0.30;87.64
60479;BME280;46321;48.398;11.754;2022-12-10T04:14:55;95313.97;;;0.48;86.66
60479;BME280;46321;48.398;11.754;2022-12-10T04:17:39;95314.91;;;0.57;85.97
60479;BME280;46321;48.398;11.754;2022-12-10T04:20:05;95317.50;;;0.57;85.93
60479;BME280;46321;48.398;11.754;2022-12-10T04:22:30;95319.97;;;0.59;86.12
60479;BME280;46321;48.398;11.754;2022-12-10T04:25:14;95322.56;;;0.59;85.73
60479;BME280;46321;48.398;11.754;2022-12-10T04:27:58;95335.31;;;0.52;86.46
60479;BME280;46321;48.398;11.754;2022-12-10T04:30:24;95341.81;;;0.38;86.64
60479;BME280;46321;48.398;11.754;2022-12-10T04:32:49;95339.50;;;0.25;87.45
60479;BME280;46321;48.398;11.754;2022-12-10T04:35:15;95331.44;;;0.18;87.44
60479;BME280;46321;48.398;11.754;2022-12-10T04:37:40;95328.00;;;0.17;87.68
60479;BME280;46321;48.398;11.754;2022-12-10T04:40:06;95338.53;;;0.16;88.02
60479;BME280;46321;48.398;11.754;2022-12-10T04:42:32;95339.94;;;0.20;88.16
60479;BME280;46321;48.398;11.754;2022-12-10T04:44:58;95339.94;;;0.20;88.05
60479;BME280;46321;48.398;11.754;2022-12-10T04:47:23;95338.94;;;0.21;88.24
60479;BME280;46321;48.398;11.754;2022-12-10T04:49:48;95340.59;;;0.22;88.21
60479;BME280;46321;48.398;11.754;2022-12-10T04:52:15;95343.75;;;0.16;88.41
60479;BME280;46321;48.398;11.754;2022-12-10T04:54:42;95351.69;;;0.14;88.27
60479;BME280;46321;48.398;11.754;2022-12-10T04:57:08;95352.53;;;0.15;88.43
60479;BME280;46321;48.398;11.754;2022-12-10T04:59:35;95354.31;;;0.14;88.55
60479;BME280;46321;48.398;11.754;2022-12-10T05:02:01;95348.69;;;0.19;88.51
60479;BME280;46321;48.398;11.754;2022-12-10T05:04:26;95351.03;;;0.22;88.15
60479;BME280;46321;48.398;11.754;2022-12-10T05:06:51;95347.75;;;0.20;87.77
60479;BME280;46321;48.398;11.754;2022-12-10T05:09:17;95345.41;;;0.17;88.13
60479;BME280;46321;48.398;11.754;2022-12-10T05:11:42;95339.09;;;0.19;87.96
60479;BME280;46321;48.398;11.754;2022-12-10T05:14:11;95340.72;;;0.20;87.71
60479;BME280;46321;48.398;11.754;2022-12-10T05:16:36;95340.72;;;0.20;87.72
60479;BME280;46321;48.398;11.754;2022-12-10T05:19:03;95332.38;;;0.17;87.96
60479;BME280;46321;48.398;11.754;2022-12-10T05:21:29;95324.03;;;0.13;88.26
60479;BME280;46321;48.398;11.754;2022-12-10T05:24:14;95330.59;;;0.07;88.71
60479;BME280;46321;48.398;11.754;2022-12-10T05:26:39;95331.97;;;0.11;88.51
60479;BME280;46321;48.398;11.754;2022-12-10T05:29:05;95334.31;;;0.15;88.45
60479;BME280;46321;48.398;11.754;2022-12-10T05:31:31;95329.63;;;0.18;87.80
60479;BME280;46321;48.398;11.754;2022-12-10T05:33:57;95331.56;;;0.16;88.16
60479;BME280;46321;48.398;11.754;2022-12-10T05:36:25;95325.63;;;0.44;86.85
60479;BME280;46321;48.398;11.754;2022-12-10T05:38:52;95331.22;;;0.59;86.28
60479;BME280;46321;48.398;11.754;2022-12-10T05:41:20;95334.38;;;0.43;86.70
60479;BME280;46321;48.398;11.754;2022-12-10T05:43:47;95326.50;;;0.25;87.65
60479;BME280;46321;48.398;11.754;2022-12-10T05:46:32;95330.72;;;0.16;88.16
60479;BME280;46321;48.398;11.754;2022-12-10T05:49:00;95323.75;;;0.16;88.36
60479;BME280;46321;48.398;11.754;2022-12-10T05:51:28;95336.91;;;0.15;88.80
60479;BME280;46321;48.398;11.754;2022-12-10T05:53:54;95335.25;;;0.14;88.51
60479;BME280;46321;48.398;11.754;2022-12-10T05:56:22;95360.75;;;0.20;88.54
60479;BME280;46321;48.398;11.754;2022-12-10T05:58:50;95362.38;;;0.21;88.40
60479;BME280;46321;48.398;11.754;2022-12-10T06:01:21;95363.88;;;0.24;88.26
60479;BME280;46321;48.398;11.754;2022-12-10T06:03:46;95364.72;;;0.24;88.44
60479;BME280;46321;48.398;11.754;2022-12-10T06:06:12;95356.72;;;0.55;86.63
60479;BME280;46321;48.398;11.754;2022-12-10T06:08:39;95356.69;;;0.65;86.27
60479;BME280;46321;48.398;11.754;2022-12-10T06:11:09;95351.34;;;0.67;85.92
60479;BME280;46321;48.398;11.754;2022-12-10T06:13:36;95347.25;;;0.64;85.65
60479;BME280;46321;48.398;11.754;2022-12-10T06:16:05;95358.03;;;0.70;85.66
60479;BME280;46321;48.398;11.754;2022-12-10T06:18:31;95342.97;;;0.63;85.71
60479;BME280;46321;48.398;11.754;2022-12-10T06:20:56;95347.50;;;0.71;85.34
60479;BME280;46321;48.398;11.754;2022-12-10T06:23:22;95361.06;;;0.75;85.05
60479;BME280;46321;48.398;11.754;2022-12-10T06:25:47;95356.94;;;0.72;85.07
60479;BME280;46321;48.398;11.754;2022-12-10T06:28:12;95364.75;;;0.72;85.14
60479;BME280;46321;48.398;11.754;2022-12-10T06:30:38;95358.88;;;0.70;85.22
60479;BME280;46321;48.398;11.754;2022-12-10T06:33:03;95359.16;;;0.67;85.00
60479;BME280;46321;48.398;11.754;2022-12-10T06:35:28;95360.38;;;0.73;85.01
60479;BME280;46321;48.398;11.754;2022-12-10T06:37:54;95356.66;;;0.75;85.06
60479;BME280;46321;48.398;11.754;2022-12-10T06:40:19;95354.06;;;0.75;84.91
60479;BME280;46321;48.398;11.754;2022-12-10T06:42:44;95355.56;;;0.78;84.39
60479;BME280;46321;48.398;11.754;2022-12-10T06:45:10;95361.47;;;0.80;84.32
60479;BME280;46321;48.398;11.754;2022-12-10T06:47:35;95359.13;;;0.77;84.23
60479;BME280;46321;48.398;11.754;2022-12-10T06:50:01;95363.25;;;0.79;84.34
60479;BME280;46321;48.398;11.754;2022-12-10T06:52:26;95358.19;;;0.78;84.29
60479;BME280;46321;48.398;11.754;2022-12-10T06:54:51;95359.53;;;0.72;84.41
60479;BME280;46321;48.398;11.754;2022-12-10T06:57:18;95367.66;;;0.69;84.84
60479;BME280;46321;48.398;11.754;2022-12-10T06:59:44;95365.84;;;0.70;84.99
60479;BME280;46321;48.398;11.754;2022-12-10T07:02:09;95366.56;;;0.62;85.17
60479;BME280;46321;48.398;11.754;2022-12-10T07:04:35;95360.38;;;0.63;85.33
60479;BME280;46321;48.398;11.754;2022-12-10T07:07:01;95355.88;;;0.65;85.03
60479;BME280;46321;48.398;11.754;2022-12-10T07:09:26;95362.56;;;0.67;85.17
60479;BME280;46321;48.398;11.754;2022-12-10T07:11:52;95360.69;;;0.60;85.87
60479;BME280;46321;48.398;11.754;2022-12-10T07:14:18;95368.47;;;0.70;85.44
60479;BME280;46321;48.398;11.754;2022-12-10T07:16:44;95354.63;;;0.69;85.42
60479;BME280;46321;48.398;11.754;2022-12-10T07:19:10;95363.66;;;0.75;85.13
60479;BME280;46321;48.398;11.754;2022-12-10T07:21:37;95364.34;;;0.77;85.02
60479;BME280;46321;48.398;11.754;2022-12-10T07:24:06;95370.22;;;0.79;84.79
60479;BME280;46321;48.398;11.754;2022-12-10T07:26:35;95367.34;;;0.82;84.80
60479;BME280;46321;48.398;11.754;2022-12-10T07:29:02;95374.34;;;0.82;84.54
60479;BME280;46321;48.398;11.754;2022-12-10T07:31:28;95367.50;;;0.81;84.79
60479;BME280;46321;48.398;11.754;2022-12-10T07:33:54;95370.91;;;0.81;84.63
60479;BME280;46321;48.398;11.754;2022-12-10T07:36:21;95371.56;;;0.83;84.88
60479;BME280;46321;48.398;11.754;2022-12-10T07:38:48;95366.38;;;0.83;84.45
60479;BME280;46321;48.398;11.754;2022-12-10T07:41:13;95367.34;;;0.82;84.56
60479;BME280;46321;48.398;11.754;2022-12-10T07:43:40;95374.19;;;0.83;84.34
60479;BME280;46321;48.398;11.754;2022-12-10T07:46:15;95369.66;;;0.85;84.42
60479;BME280;46321;48.398;11.754;2022-12-10T07:48:43;95368.69;;;0.86;84.31
60479;BME280;46321;48.398;11.754;2022-12-10T07:51:09;95373.50;;;0.91;84.27
60479;BME280;46321;48.398;11.754;2022-12-10T07:53:34;95381.84;;;0.95;84.23
60479;BME280;46321;48.398;11.754;2022-12-10T07:56:00;95377.72;;;0.92;84.08
60479;BME280;46321;48.398;11.754;2022-12-10T07:58:26;95382.50;;;0.97;83.77
60479;BME280;46321;48.398;11.754;2022-12-10T08:00:52;95378.41;;;0.94;84.07
60479;BME280;46321;48.398;11.754;2022-12-10T08:03:17;95376.34;;;0.98;83.92
60479;BME280;46321;48.398;11.754;2022-12-10T08:05:42;95387.72;;;0.97;83.90
60479;BME280;46321;48.398;11.754;2022-12-10T08:08:08;95385.28;;;0.95;83.30
60479;BME280;46321;48.398;11.754;2022-12-10T08:10:37;95387.19;;;0.93;83.69
60479;BME280;46321;48.398;11.754;2022-12-10T08:13:03;95378.56;;;0.93;83.70
60479;BME280;46321;48.398;11.754;2022-12-10T08:15:29;95377.97;;;0.99;83.76
60479;BME280;46321;48.398;11.754;2022-12-10T08:17:55;95372.34;;;1.03;83.64
60479;BME280;46321;48.398;11.754;2022-12-10T08:20:21;95370.47;;;0.96;84.26
60479;BME280;46321;48.398;11.754;2022-12-10T08:22:46;95373.00;;;1.06;83.98
60479;BME280;46321;48.398;11.754;2022-12-10T08:25:12;95370.13;;;1.09;84.00
60479;BME280;46321;48.398;11.754;2022-12-10T08:27:37;95378.66;;;1.01;84.17
60479;BME280;46321;48.398;11.754;2022-12-10T08:30:03;95370.66;;;1.12;83.98
60479;BME280;46321;48.398;11.754;2022-12-10T08:32:28;95371.22;;;1.16;83.32
60479;BME280;46321;48.398;11.754;2022-12-10T08:34:53;95373.38;;;1.21;83.33
60479;BME280;46321;48.398;11.754;2022-12-10T08:37:18;95372.84;;;1.17;83.23
60479;BME280;46321;48.398;11.754;2022-12-10T08:39:44;95377.78;;;1.20;83.31
60479;BME280;46321;48.398;11.754;2022-12-10T08:42:09;95379.56;;;1.20;83.18
60479;BME280;46321;48.398;11.754;2022-12-10T08:44:34;95385.44;;;1.22;82.96
60479;BME280;46321;48.398;11.754;2022-12-10T08:47:00;95392.41;;;1.03;83.64
60479;BME280;46321;48.398;11.754;2022-12-10T08:49:25;95401.25;;;1.20;83.02
60479;BME280;46321;48.398;11.754;2022-12-10T08:51:50;95400.81;;;1.25;82.71
60479;BME280;46321;48.398;11.754;2022-12-10T08:54:15;95400.50;;;1.28;82.44
60479;BME280;46321;48.398;11.754;2022-12-10T08:56:41;95392.41;;;1.31;82.79
60479;BME280;46321;48.398;11.754;2022-12-10T08:59:06;95393.94;;;1.24;82.83
60479;BME280;46321;48.398;11.754;2022-12-10T09:01:32;95391.31;;;1.34;82.68
60479;BME280;46321;48.398;11.754;2022-12-10T09:03:57;95393.75;;;1.35;82.53
60479;BME280;46321;48.398;11.754;2022-12-10T09:06:24;95396.09;;;1.39;82.87
60479;BME280;46321;48.398;11.754;2022-12-10T09:08:49;95395.09;;;1.40;82.57
60479;BME280;46321;48.398;11.754;2022-12-10T09:11:25;95398.03;;;1.36;82.59
60479;BME280;46321;48.398;11.754;2022-12-10T09:13:51;95404.78;;;1.29;82.56
60479;BME280;46321;48.398;11.754;2022-12-10T09:16:17;95416.81;;;1.30;82.14
60479;BME280;46321;48.398;11.754;2022-12-10T09:18:42;95416.28;;;1.36;82.17
60479;BME280;46321;48.398;11.754;2022-12-10T09:21:16;95411.84;;;1.37;81.96
60479;BME280;46321;48.398;11.754;2022-12-10T09:23:42;95404.34;;;1.34;82.19
60479;BME280;46321;48.398;11.754;2022-12-10T09:26:09;95406.53;;;1.39;82.34
60479;BME280;46321;48.398;11.754;2022-12-10T09:28:35;95395.53;;;1.35;82.44
60479;BME280;46321;48.398;11.754;2022-12-10T09:31:02;95398.88;;;1.27;82.67
60479;BME280;46321;48.398;11.754;2022-12-10T09:33:28;95400.31;;;1.40;82.30
60479;BME280;46321;48.398;11.754;2022-12-10T09:35:53;95403.19;;;1.46;82.07
60479;BME280;46321;48.398;11.754;2022-12-10T09:38:20;95412.22;;;1.52;81.58
60479;BME280;46321;48.398;11.754;2022-12-10T09:41:19;95409.63;;;1.52;81.44
60479;BME280;46321;48.398;11.754;2022-12-10T09:49:37;95404.69;;;1.49;81.62
60479;BME280;46321;48.398;11.754;2022-12-10T09:52:00;95408.81;;;1.42;81.57
60479;BME280;46321;48.398;11.754;2022-12-10T09:54:32;95414.72;;;1.44;81.94
60479;BME280;46321;48.398;11.754;2022-12-10T09:56:59;95418.00;;;1.46;81.36
60479;BME280;46321;48.398;11.754;2022-12-10T09:59:41;95419.50;;;1.48;81.41
60479;BME280;46321;48.398;11.754;2022-12-10T10:02:31;95417.03;;;1.47;81.34
60479;BME280;46321;48.398;11.754;2022-12-10T10:05:11;95405.63;;;1.48;81.55
60479;BME280;46321;48.398;11.754;2022-12-10T10:07:51;95407.03;;;1.42;81.13
60479;BME280;46321;48.398;11.754;2022-12-10T10:13:32;95403.91;;;1.39;81.30
60479;BME280;46321;48.398;11.754;2022-12-10T10:18:51;95415.03;;;1.02;82.75
60479;BME280;46321;48.398;11.754;2022-12-10T10:21:22;95406.28;;;0.94;82.92
60479;BME280;46321;48.398;11.754;2022-12-10T10:23:48;95403.66;;;0.94;83.36
60479;BME280;46321;48.398;11.754;2022-12-10T10:26:14;95414.22;;;0.92;83.43
60479;BME280;46321;48.398;11.754;2022-12-10T10:28:40;95405.28;;;0.95;83.33
60479;BME280;46321;48.398;11.754;2022-12-10T10:31:26;95405.59;;;0.91;83.57
60479;BME280;46321;48.398;11.754;2022-12-10T10:33:54;95417.94;;;0.89;83.70
60479;BME280;46321;48.398;11.754;2022-12-10T10:36:32;95407.38;;;0.91;83.89
60479;BME280;46321;48.398;11.754;2022-12-10T10:41:42;95404.47;;;0.94;83.70
60479;BME280;46321;48.398;11.754;2022-12-10T10:44:16;95403.34;;;0.97;83.59
60479;BME280;46321;48.398;11.754;2022-12-10T10:46:44;95402.41;;;0.98;83.72
60479;BME280;46321;48.398;11.754;2022-12-10T10:49:28;95405.84;;;0.98;82.88
60479;BME280;46321;48.398;11.754;2022-12-10T10:51:59;95403.34;;;0.97;83.24
60479;BME280;46321;48.398;11.754;2022-12-10T10:54:39;95404.34;;;0.96;83.40
60479;BME280;46321;48.398;11.754;2022-12-10T10:57:12;95403.09;;;1.00;83.38
60479;BME280;46321;48.398;11.754;2022-12-10T10:59:38;95400.63;;;0.98;83.15
60479;BME280;46321;48.398;11.754;2022-12-10T11:04:52;95381.84;;;0.95;82.93
60479;BME280;46321;48.398;11.754;2022-12-10T11:07:24;95382.25;;;1.00;82.76
60479;BME280;46321;48.398;11.754;2022-12-10T11:09:52;95382.00;;;0.93;83.44
60479;BME280;46321;48.398;11.754;2022-12-10T11:12:31;95386.63;;;0.99;83.21
60479;BME280;46321;48.398;11.754;2022-12-10T11:14:58;95382.09;;;1.01;83.07
60479;BME280;46321;48.398;11.754;2022-12-10T11:17:24;95383.31;;;1.07;83.16
60479;BME280;46321;48.398;11.754;2022-12-10T11:20:12;95377.69;;;1.02;83.17
60479;BME280;46321;48.398;11.754;2022-12-10T11:22:49;95380.03;;;1.05;83.26
60479;BME280;46321;48.398;11.754;2022-12-10T11:25:14;95380.28;;;1.12;83.38
60479;BME280;46321;48.398;11.754;2022-12-10T11:27:58;95373.16;;;1.04;83.39
60479;BME280;46321;48.398;11.754;2022-12-10T11:30:26;95374.94;;;1.03;83.53
60479;BME280;46321;48.398;11.754;2022-12-10T11:36:11;95384.94;;;1.08;83.43
60479;BME280;46321;48.398;11.754;2022-12-10T11:38:51;95386.28;;;1.12;83.12
60479;BME280;46321;48.398;11.754;2022-12-10T11:41:39;95388.91;;;1.12;83.16
60479;BME280;46321;48.398;11.754;2022-12-10T11:44:14;95379.81;;;1.17;83.21
60479;BME280;46321;48.398;11.754;2022-12-10T11:52:34;95377.09;;;1.18;83.42
60479;BME280;46321;48.398;11.754;2022-12-10T11:57:33;95376.66;;;1.23;83.24
60479;BME280;46321;48.398;11.754;2022-12-10T12:08:23;95388.44;;;1.27;83.78
60479;BME280;46321;48.398;11.754;2022-12-10T12:13:25;95379.22;;;1.33;82.89
60479;BME280;46321;48.398;11.754;2022-12-10T12:15:57;95373.28;;;1.41;82.81
60479;BME280;46321;48.398;11.754;2022-12-10T12:18:44;95387.28;;;1.40;82.65
60479;BME280;46321;48.398;11.754;2022-12-10T12:21:13;95380.69;;;1.45;83.01
60479;BME280;46321;48.398;11.754;2022-12-10T12:23:54;95378.88;;;1.46;83.01
60479;BME280;46321;48.398;11.754;2022-12-10T12:26:35;95369.00;;;1.50;82.73
60479;BME280;46321;48.398;11.754;2022-12-10T12:29:21;95380.63;;;1.55;83.18
60479;BME280;46321;48.398;11.754;2022-12-10T12:32:02;95376.38;;;1.54;82.79
60479;BME280;46321;48.398;11.754;2022-12-10T12:37:10;95386.84;;;1.44;82.65
60479;BME280;46321;48.398;11.754;2022-12-10T12:40:01;95391.81;;;1.37;83.37
60479;BME280;46321;48.398;11.754;2022-12-10T12:42:36;95392.81;;;1.36;83.66
60479;BME280;46321;48.398;11.754;2022-12-10T12:45:15;95394.44;;;1.37;83.85
60479;BME280;46321;48.398;11.754;2022-12-10T12:47:58;95387.88;;;1.33;83.85
60479;BME280;46321;48.398;11.754;2022-12-10T12:50:32;95387.59;;;1.36;83.65
60479;BME280;46321;48.398;11.754;2022-12-10T12:53:00;95394.75;;;1.34;83.59
60479;BME280;46321;48.398;11.754;2022-12-10T12:55:45;95401.34;;;1.29;83.82
60479;BME280;46321;48.398;11.754;2022-12-10T12:58:22;95397.47;;;1.33;84.20
60479;BME280;46321;48.398;11.754;2022-12-10T13:00:54;95400.22;;;1.31;84.12
60479;BME280;46321;48.398;11.754;2022-12-10T13:03:36;95411.06;;;1.36;83.90
60479;BME280;46321;48.398;11.754;2022-12-10T13:06:24;95407.22;;;1.31;84.27
60479;BME280;46321;48.398;11.754;2022-12-10T13:11:33;95409.84;;;1.31;84.02
60479;BME280;46321;48.398;11.754;2022-12-10T13:14:11;95415.19;;;1.29;84.03
60479;BME280;46321;48.398;11.754;2022-12-10T13:27:14;95439.94;;;1.25;84.46
60479;BME280;46321;48.398;11.754;2022-12-10T13:29:54;95433.72;;;1.26;84.51
60479;BME280;46321;48.398;11.754;2022-12-10T13:37:35;95467.94;;;1.23;84.09
60479;BME280;46321;48.398;11.754;2022-12-10T13:42:37;95472.63;;;1.09;84.74
60479;BME280;46321;48.398;11.754;2022-12-10T13:47:52;95474.13;;;1.02;85.03
60479;BME280;46321;48.398;11.754;2022-12-10T13:53:07;95474.66;;;1.06;84.93
60479;BME280;46321;48.398;11.754;2022-12-10T13:55:46;95476.47;;;1.05;84.97
60479;BME280;46321;48.398;11.754;2022-12-10T13:58:26;95486.34;;;1.01;85.13
60479;BME280;46321;48.398;11.754;2022-12-10T14:01:13;95485.25;;;0.94;85.31
60479;BME280;46321;48.398;11.754;2022-12-10T14:06:25;95501.34;;;0.89;85.46
60479;BME280;46321;48.398;11.754;2022-12-10T14:09:09;95498.84;;;0.88;85.37
60479;BME280;46321;48.398;11.754;2022-12-10T14:11:45;95500.50;;;0.79;85.78
60479;BME280;46321;48.398;11.754;2022-12-10T14:14:22;95498.88;;;0.78;85.99
60479;BME280;46321;48.398;11.754;2022-12-10T14:16:48;95505.16;;;0.75;86.41
60479;BME280;46321;48.398;11.754;2022-12-10T14:19:16;95513.00;;;0.75;86.41
60479;BME280;46321;48.398;11.754;2022-12-10T14:21:43;95521.06;;;0.72;86.21
60479;BME280;46321;48.398;11.754;2022-12-10T14:24:30;95524.66;;;0.71;86.40
60479;BME280;46321;48.398;11.754;2022-12-10T14:27:02;95517.66;;;0.72;86.38
60479;BME280;46321;48.398;11.754;2022-12-10T14:29:28;95514.63;;;0.66;86.56
60479;BME280;46321;48.398;11.754;2022-12-10T14:31:54;95517.38;;;0.65;86.78
60479;BME280;46321;48.398;11.754;2022-12-10T14:34:24;95521.47;;;0.67;87.16
60479;BME280;46321;48.398;11.754;2022-12-10T14:36:52;95521.47;;;0.67;87.23
60479;BME280;46321;48.398;11.754;2022-12-10T14:39:26;95520.00;;;0.65;87.10